sensor_id;sensor_type;location;lat;lon;timestamp;temperature;humidity
70246;SHT30;57637;49.272;8.590;2022-11-06T00:01:28;4.35;97.65
70246;SHT30;57637;49.272;8.590;2022-11-06T00:03:54;4.29;97.65
70246;SHT30;57637;49.272;8.590;2022-11-06T00:06:20;4.29;97.65
70246;SHT30;57637;49.272;8.590;2022-11-06T00:09:06;4.22;97.69
70246;SHT30;57637;49.272;8.590;2022-11-06T00:11:33;4.22;97.68
70246;SHT30;57637;49.272;8.590;2022-11-06T00:13:59;4.19;97.70
70246;SHT30;57637;49.272;8.590;2022-11-06T00:16:25;4.19;97.72
70246;SHT30;57637;49.272;8.590;2022-11-06T00:18:50;4.10;97.42
70246;SHT30;57637;49.272;8.590;2022-11-06T00:21:23;3.95;97.26
70246;SHT30;57637;49.272;8.590;2022-11-06T00:23:51;3.92;97.35
70246;SHT30;57637;49.272;8.590;2022-11-06T00:26:21;3.91;97.29
70246;SHT30;57637;49.272;8.590;2022-11-06T00:28:51;3.77;97.13
70246;SHT30;57637;49.272;8.590;2022-11-06T00:31:18;3.67;97.16
70246;SHT30;57637;49.272;8.590;2022-11-06T00:33:45;3.67;97.30
70246;SHT30;57637;49.272;8.590;2022-11-06T00:36:12;3.61;97.38
70246;SHT30;57637;49.272;8.590;2022-11-06T00:38:40;3.61;97.45
70246;SHT30;57637;49.272;8.590;2022-11-06T00:41:15;3.53;97.40
70246;SHT30;57637;49.272;8.590;2022-11-06T00:43:41;3.53;97.58
70246;SHT30;57637;49.272;8.590;2022-11-06T00:46:12;3.51;97.63
70246;SHT30;57637;49.272;8.590;2022-11-06T00:48:38;3.50;97.68
70246;SHT30;57637;49.272;8.590;2022-11-06T00:51:12;3.51;97.80
70246;SHT30;57637;49.272;8.590;2022-11-06T00:53:39;3.53;97.77
70246;SHT30;57637;49.272;8.590;2022-11-06T00:56:15;3.51;97.74
70246;SHT30;57637;49.272;8.590;2022-11-06T00:58:45;3.48;97.55
70246;SHT30;57637;49.272;8.590;2022-11-06T01:01:15;3.37;97.53
70246;SHT30;57637;49.272;8.590;2022-11-06T01:03:42;3.34;97.47
70246;SHT30;57637;49.272;8.590;2022-11-06T01:06:10;3.28;97.58
70246;SHT30;57637;49.272;8.590;2022-11-06T01:08:41;3.31;97.73
70246;SHT30;57637;49.272;8.590;2022-11-06T01:11:08;3.31;97.78
70246;SHT30;57637;49.272;8.590;2022-11-06T01:13:40;3.34;97.86
70246;SHT30;57637;49.272;8.590;2022-11-06T01:16:06;3.31;97.81
70246;SHT30;57637;49.272;8.590;2022-11-06T01:18:34;3.28;97.77
70246;SHT30;57637;49.272;8.590;2022-11-06T01:21:04;3.27;97.90
70246;SHT30;57637;49.272;8.590;2022-11-06T01:23:31;3.28;97.82
70246;SHT30;57637;49.272;8.590;2022-11-06T01:25:57;3.31;97.88
70246;SHT30;57637;49.272;8.590;2022-11-06T01:28:24;3.31;98.03
70246;SHT30;57637;49.272;8.590;2022-11-06T01:30:50;3.30;97.92
70246;SHT30;57637;49.272;8.590;2022-11-06T01:33:15;3.36;98.22
70246;SHT30;57637;49.272;8.590;2022-11-06T01:35:44;3.44;98.30
70246;SHT30;57637;49.272;8.590;2022-11-06T01:38:10;3.46;98.22
70246;SHT30;57637;49.272;8.590;2022-11-06T01:40:40;3.41;98.07
70246;SHT30;57637;49.272;8.590;2022-11-06T01:43:17;3.31;97.98
70246;SHT30;57637;49.272;8.590;2022-11-06T01:46:03;3.34;98.07
70246;SHT30;57637;49.272;8.590;2022-11-06T01:48:28;3.40;98.42
70246;SHT30;57637;49.272;8.590;2022-11-06T01:50:54;3.36;98.37
70246;SHT30;57637;49.272;8.590;2022-11-06T01:53:21;3.28;98.17
70246;SHT30;57637;49.272;8.590;2022-11-06T01:55:50;3.30;98.35
70246;SHT30;57637;49.272;8.590;2022-11-06T01:58:19;3.30;98.37
70246;SHT30;57637;49.272;8.590;2022-11-06T02:00:46;3.28;98.24
70246;SHT30;57637;49.272;8.590;2022-11-06T02:03:12;3.38;98.80
70246;SHT30;57637;49.272;8.590;2022-11-06T02:05:38;3.46;98.70
70246;SHT30;57637;49.272;8.590;2022-11-06T02:08:05;3.46;98.58
70246;SHT30;57637;49.272;8.590;2022-11-06T02:10:34;3.44;98.50
70246;SHT30;57637;49.272;8.590;2022-11-06T02:13:07;3.47;98.69
70246;SHT30;57637;49.272;8.590;2022-11-06T02:21:30;3.40;98.62
70246;SHT30;57637;49.272;8.590;2022-11-06T02:24:12;3.41;98.65
70246;SHT30;57637;49.272;8.590;2022-11-06T02:29:33;3.48;98.77
70246;SHT30;57637;49.272;8.590;2022-11-06T02:32:39;3.50;98.67
70246;SHT30;57637;49.272;8.590;2022-11-06T02:35:31;3.57;99.09
70246;SHT30;57637;49.272;8.590;2022-11-06T02:38:09;3.56;98.97
70246;SHT30;57637;49.272;8.590;2022-11-06T02:40:41;3.56;98.99
70246;SHT30;57637;49.272;8.590;2022-11-06T02:43:11;3.64;99.08
70246;SHT30;57637;49.272;8.590;2022-11-06T02:45:45;3.57;98.83
70246;SHT30;57637;49.272;8.590;2022-11-06T02:48:15;3.53;98.83
70246;SHT30;57637;49.272;8.590;2022-11-06T02:50:44;3.46;98.86
70246;SHT30;57637;49.272;8.590;2022-11-06T02:53:14;3.43;98.98
70246;SHT30;57637;49.272;8.590;2022-11-06T02:55:48;3.38;98.91
70246;SHT30;57637;49.272;8.590;2022-11-06T02:58:19;3.33;98.89
70246;SHT30;57637;49.272;8.590;2022-11-06T03:00:52;3.27;98.87
70246;SHT30;57637;49.272;8.590;2022-11-06T03:03:27;3.20;98.69
70246;SHT30;57637;49.272;8.590;2022-11-06T03:05:57;3.10;98.62
70246;SHT30;57637;49.272;8.590;2022-11-06T03:08:38;2.97;98.39
70246;SHT30;57637;49.272;8.590;2022-11-06T03:11:15;2.82;98.36
70246;SHT30;57637;49.272;8.590;2022-11-06T03:16:40;2.66;98.55
70246;SHT30;57637;49.272;8.590;2022-11-06T03:19:25;2.68;98.74
70246;SHT30;57637;49.272;8.590;2022-11-06T03:22:15;2.69;98.96
70246;SHT30;57637;49.272;8.590;2022-11-06T03:24:50;2.69;98.98
70246;SHT30;57637;49.272;8.590;2022-11-06T03:27:33;2.72;99.00
70246;SHT30;57637;49.272;8.590;2022-11-06T03:30:11;2.68;98.93
70246;SHT30;57637;49.272;8.590;2022-11-06T03:41:01;2.79;99.52
70246;SHT30;57637;49.272;8.590;2022-11-06T03:43:34;2.83;99.43
70246;SHT30;57637;49.272;8.590;2022-11-06T03:46:01;2.85;99.23
70246;SHT30;57637;49.272;8.590;2022-11-06T03:48:33;2.78;99.17
70246;SHT30;57637;49.272;8.590;2022-11-06T03:51:17;2.82;99.44
70246;SHT30;57637;49.272;8.590;2022-11-06T03:53:52;2.85;99.62
70246;SHT30;57637;49.272;8.590;2022-11-06T03:56:25;2.85;99.52
70246;SHT30;57637;49.272;8.590;2022-11-06T03:58:57;2.79;99.51
70246;SHT30;57637;49.272;8.590;2022-11-06T04:01:27;2.78;99.66
70246;SHT30;57637;49.272;8.590;2022-11-06T04:03:58;2.78;99.69
70246;SHT30;57637;49.272;8.590;2022-11-06T04:06:34;2.72;99.72
70246;SHT30;57637;49.272;8.590;2022-11-06T04:09:05;2.73;99.72
70246;SHT30;57637;49.272;8.590;2022-11-06T04:11:52;2.72;99.65
70246;SHT30;57637;49.272;8.590;2022-11-06T04:14:38;2.69;99.70
70246;SHT30;57637;49.272;8.590;2022-11-06T04:17:07;2.69;99.75
70246;SHT30;57637;49.272;8.590;2022-11-06T04:19:36;2.68;99.66
70246;SHT30;57637;49.272;8.590;2022-11-06T04:22:15;2.68;99.80
70246;SHT30;57637;49.272;8.590;2022-11-06T04:28:05;2.65;99.84
70246;SHT30;57637;49.272;8.590;2022-11-06T04:31:02;2.62;99.94
70246;SHT30;57637;49.272;8.590;2022-11-06T04:39:55;2.59;99.99
70246;SHT30;57637;49.272;8.590;2022-11-06T04:45:00;2.61;99.99
70246;SHT30;57637;49.272;8.590;2022-11-06T04:47:32;2.56;99.99
70246;SHT30;57637;49.272;8.590;2022-11-06T04:50:01;2.61;99.99
70246;SHT30;57637;49.272;8.590;2022-11-06T04:52:29;2.61;99.99
70246;SHT30;57637;49.272;8.590;2022-11-06T04:54:56;2.61;99.99
70246;SHT30;57637;49.272;8.590;2022-11-06T04:57:23;2.61;99.99
70246;SHT30;57637;49.272;8.590;2022-11-06T04:59:49;2.61;99.99
70246;SHT30;57637;49.272;8.590;2022-11-06T05:02:14;2.61;99.99
70246;SHT30;57637;49.272;8.590;2022-11-06T05:04:40;2.63;99.99
70246;SHT30;57637;49.272;8.590;2022-11-06T05:07:05;2.65;99.99
70246;SHT30;57637;49.272;8.590;2022-11-06T05:09:31;2.68;99.99
70246;SHT30;57637;49.272;8.590;2022-11-06T05:11:56;2.69;99.99
70246;SHT30;57637;49.272;8.590;2022-11-06T05:14:21;2.78;99.99
70246;SHT30;57637;49.272;8.590;2022-11-06T05:16:47;2.76;99.99
70246;SHT30;57637;49.272;8.590;2022-11-06T05:19:12;2.81;99.99
70246;SHT30;57637;49.272;8.590;2022-11-06T05:21:38;2.83;99.99
70246;SHT30;57637;49.272;8.590;2022-11-06T05:24:22;2.88;99.99
70246;SHT30;57637;49.272;8.590;2022-11-06T05:26:47;2.92;99.99
70246;SHT30;57637;49.272;8.590;2022-11-06T05:29:13;2.89;99.99
70246;SHT30;57637;49.272;8.590;2022-11-06T05:31:38;2.85;99.99
70246;SHT30;57637;49.272;8.590;2022-11-06T05:34:04;2.86;99.99
70246;SHT30;57637;49.272;8.590;2022-11-06T05:36:31;2.86;99.99
70246;SHT30;57637;49.272;8.590;2022-11-06T05:38:56;2.86;99.99
70246;SHT30;57637;49.272;8.590;2022-11-06T05:41:21;2.83;99.99
70246;SHT30;57637;49.272;8.590;2022-11-06T05:43:47;2.85;99.99
70246;SHT30;57637;49.272;8.590;2022-11-06T05:46:12;2.91;99.99
70246;SHT30;57637;49.272;8.590;2022-11-06T05:48:37;2.92;99.99
70246;SHT30;57637;49.272;8.590;2022-11-06T05:51:03;2.88;99.99
70246;SHT30;57637;49.272;8.590;2022-11-06T05:53:30;2.86;99.99
70246;SHT30;57637;49.272;8.590;2022-11-06T05:55:57;2.88;99.99
70246;SHT30;57637;49.272;8.590;2022-11-06T05:58:23;2.88;99.99
70246;SHT30;57637;49.272;8.590;2022-11-06T06:00:48;2.88;99.99
70246;SHT30;57637;49.272;8.590;2022-11-06T06:03:13;2.91;99.99
70246;SHT30;57637;49.272;8.590;2022-11-06T06:05:39;2.93;99.99
70246;SHT30;57637;49.272;8.590;2022-11-06T06:08:04;2.91;99.99
70246;SHT30;57637;49.272;8.590;2022-11-06T06:10:30;2.93;99.99
70246;SHT30;57637;49.272;8.590;2022-11-06T06:12:55;3.00;99.99
70246;SHT30;57637;49.272;8.590;2022-11-06T06:15:21;3.00;99.99
70246;SHT30;57637;49.272;8.590;2022-11-06T06:17:46;3.03;99.99
70246;SHT30;57637;49.272;8.590;2022-11-06T06:20:12;3.07;99.99
70246;SHT30;57637;49.272;8.590;2022-11-06T06:22:37;3.06;99.99
70246;SHT30;57637;49.272;8.590;2022-11-06T06:25:03;3.09;99.99
70246;SHT30;57637;49.272;8.590;2022-11-06T06:27:29;3.14;99.99
70246;SHT30;57637;49.272;8.590;2022-11-06T06:29:55;3.13;99.99
70246;SHT30;57637;49.272;8.590;2022-11-06T06:32:20;3.17;99.99
70246;SHT30;57637;49.272;8.590;2022-11-06T06:34:46;3.16;99.99
70246;SHT30;57637;49.272;8.590;2022-11-06T06:37:11;3.19;99.99
70246;SHT30;57637;49.272;8.590;2022-11-06T06:39:36;3.19;99.99
70246;SHT30;57637;49.272;8.590;2022-11-06T06:42:02;3.17;99.99
70246;SHT30;57637;49.272;8.590;2022-11-06T06:44:27;3.14;99.99
70246;SHT30;57637;49.272;8.590;2022-11-06T06:46:53;3.22;99.99
70246;SHT30;57637;49.272;8.590;2022-11-06T06:49:18;3.23;99.99
70246;SHT30;57637;49.272;8.590;2022-11-06T06:51:46;3.28;99.99
70246;SHT30;57637;49.272;8.590;2022-11-06T06:54:12;3.36;99.99
70246;SHT30;57637;49.272;8.590;2022-11-06T06:56:37;3.43;99.99
70246;SHT30;57637;49.272;8.590;2022-11-06T06:59:02;3.44;99.99
70246;SHT30;57637;49.272;8.590;2022-11-06T07:01:28;3.44;99.99
70246;SHT30;57637;49.272;8.590;2022-11-06T07:03:53;3.48;99.99
70246;SHT30;57637;49.272;8.590;2022-11-06T07:06:18;3.57;99.99
70246;SHT30;57637;49.272;8.590;2022-11-06T07:08:44;3.63;99.99
70246;SHT30;57637;49.272;8.590;2022-11-06T07:11:09;3.68;99.99
70246;SHT30;57637;49.272;8.590;2022-11-06T07:13:35;3.77;99.99
70246;SHT30;57637;49.272;8.590;2022-11-06T07:16:04;3.84;99.99
70246;SHT30;57637;49.272;8.590;2022-11-06T07:18:31;3.82;99.99
70246;SHT30;57637;49.272;8.590;2022-11-06T07:20:57;3.85;99.99
70246;SHT30;57637;49.272;8.590;2022-11-06T07:23:23;3.92;99.99
70246;SHT30;57637;49.272;8.590;2022-11-06T07:25:52;4.01;99.99
70246;SHT30;57637;49.272;8.590;2022-11-06T07:28:20;4.02;99.99
70246;SHT30;57637;49.272;8.590;2022-11-06T07:30:46;4.10;99.99
70246;SHT30;57637;49.272;8.590;2022-11-06T07:33:11;4.18;99.92
70246;SHT30;57637;49.272;8.590;2022-11-06T07:35:37;4.15;99.67
70246;SHT30;57637;49.272;8.590;2022-11-06T07:38:03;4.18;99.64
70246;SHT30;57637;49.272;8.590;2022-11-06T07:40:30;4.18;99.63
70246;SHT30;57637;49.272;8.590;2022-11-06T07:43:01;4.28;99.66
70246;SHT30;57637;49.272;8.590;2022-11-06T07:45:30;4.36;99.42
70246;SHT30;57637;49.272;8.590;2022-11-06T07:47:56;4.39;99.38
70246;SHT30;57637;49.272;8.590;2022-11-06T07:50:21;4.45;98.99
70246;SHT30;57637;49.272;8.590;2022-11-06T07:52:47;4.50;98.78
70246;SHT30;57637;49.272;8.590;2022-11-06T07:55:12;4.60;98.78
70246;SHT30;57637;49.272;8.590;2022-11-06T07:57:37;4.69;98.56
70246;SHT30;57637;49.272;8.590;2022-11-06T08:00:03;4.66;98.08
70246;SHT30;57637;49.272;8.590;2022-11-06T08:02:30;4.73;97.76
70246;SHT30;57637;49.272;8.590;2022-11-06T08:04:55;4.83;97.56
70246;SHT30;57637;49.272;8.590;2022-11-06T08:07:21;4.93;97.34
70246;SHT30;57637;49.272;8.590;2022-11-06T08:09:46;5.00;97.23
70246;SHT30;57637;49.272;8.590;2022-11-06T08:12:11;5.00;96.54
70246;SHT30;57637;49.272;8.590;2022-11-06T08:14:38;5.17;96.58
70246;SHT30;57637;49.272;8.590;2022-11-06T08:17:04;5.08;95.48
70246;SHT30;57637;49.272;8.590;2022-11-06T08:19:29;5.20;95.65
70246;SHT30;57637;49.272;8.590;2022-11-06T08:21:55;5.22;94.84
70246;SHT30;57637;49.272;8.590;2022-11-06T08:24:21;5.31;94.46
70246;SHT30;57637;49.272;8.590;2022-11-06T08:26:46;5.51;94.77
70246;SHT30;57637;49.272;8.590;2022-11-06T08:29:11;5.60;94.15
70246;SHT30;57637;49.272;8.590;2022-11-06T08:31:37;5.62;93.75
70246;SHT30;57637;49.272;8.590;2022-11-06T08:34:02;5.65;93.43
70246;SHT30;57637;49.272;8.590;2022-11-06T08:36:28;5.69;92.93
70246;SHT30;57637;49.272;8.590;2022-11-06T08:38:53;5.69;92.84
70246;SHT30;57637;49.272;8.590;2022-11-06T08:41:19;5.85;93.23
70246;SHT30;57637;49.272;8.590;2022-11-06T08:43:49;5.77;93.15
70246;SHT30;57637;49.272;8.590;2022-11-06T08:46:16;5.95;92.36
70246;SHT30;57637;49.272;8.590;2022-11-06T08:48:41;5.93;92.36
70246;SHT30;57637;49.272;8.590;2022-11-06T08:51:06;6.06;92.56
70246;SHT30;57637;49.272;8.590;2022-11-06T08:53:32;6.17;91.25
70246;SHT30;57637;49.272;8.590;2022-11-06T08:55:58;6.16;92.16
70246;SHT30;57637;49.272;8.590;2022-11-06T08:58:23;6.33;91.32
70246;SHT30;57637;49.272;8.590;2022-11-06T09:00:49;6.23;90.76
70246;SHT30;57637;49.272;8.590;2022-11-06T09:03:15;6.10;90.80
70246;SHT30;57637;49.272;8.590;2022-11-06T09:05:43;6.41;91.38
70246;SHT30;57637;49.272;8.590;2022-11-06T09:08:09;6.47;90.40
70246;SHT30;57637;49.272;8.590;2022-11-06T09:10:36;6.54;90.08
70246;SHT30;57637;49.272;8.590;2022-11-06T09:13:02;6.57;90.73
70246;SHT30;57637;49.272;8.590;2022-11-06T09:15:27;6.88;90.29
70246;SHT30;57637;49.272;8.590;2022-11-06T09:17:52;7.06;90.10
70246;SHT30;57637;49.272;8.590;2022-11-06T09:20:19;6.88;88.39
70246;SHT30;57637;49.272;8.590;2022-11-06T09:22:45;7.10;88.63
70246;SHT30;57637;49.272;8.590;2022-11-06T09:25:12;7.50;87.75
70246;SHT30;57637;49.272;8.590;2022-11-06T09:27:42;7.24;87.40
70246;SHT30;57637;49.272;8.590;2022-11-06T09:30:16;7.56;86.95
70246;SHT30;57637;49.272;8.590;2022-11-06T09:32:51;7.56;86.70
70246;SHT30;57637;49.272;8.590;2022-11-06T09:35:19;7.57;86.65
70246;SHT30;57637;49.272;8.590;2022-11-06T09:37:46;7.90;86.45
70246;SHT30;57637;49.272;8.590;2022-11-06T09:40:21;8.02;85.58
70246;SHT30;57637;49.272;8.590;2022-11-06T09:42:52;8.25;85.00
70246;SHT30;57637;49.272;8.590;2022-11-06T09:45:28;8.69;84.99
70246;SHT30;57637;49.272;8.590;2022-11-06T09:48:18;8.70;83.04
70246;SHT30;57637;49.272;8.590;2022-11-06T09:50:50;8.70;83.75
70246;SHT30;57637;49.272;8.590;2022-11-06T09:53:42;8.91;82.94
70246;SHT30;57637;49.272;8.590;2022-11-06T09:56:35;9.23;83.71
70246;SHT30;57637;49.272;8.590;2022-11-06T09:59:03;9.62;81.91
70246;SHT30;57637;49.272;8.590;2022-11-06T10:01:34;9.50;81.50
70246;SHT30;57637;49.272;8.590;2022-11-06T10:04:06;10.05;79.21
70246;SHT30;57637;49.272;8.590;2022-11-06T10:06:44;10.26;78.95
70246;SHT30;57637;49.272;8.590;2022-11-06T10:09:09;10.40;77.37
70246;SHT30;57637;49.272;8.590;2022-11-06T10:11:44;10.67;78.17
70246;SHT30;57637;49.272;8.590;2022-11-06T10:14:16;10.97;77.58
70246;SHT30;57637;49.272;8.590;2022-11-06T10:17:31;11.10;76.87
70246;SHT30;57637;49.272;8.590;2022-11-06T10:20:11;10.70;75.71
70246;SHT30;57637;49.272;8.590;2022-11-06T10:22:51;10.78;76.59
70246;SHT30;57637;49.272;8.590;2022-11-06T10:25:38;10.70;76.43
70246;SHT30;57637;49.272;8.590;2022-11-06T10:31:06;10.56;76.36
70246;SHT30;57637;49.272;8.590;2022-11-06T10:33:37;10.75;76.30
70246;SHT30;57637;49.272;8.590;2022-11-06T10:36:17;10.67;77.64
70246;SHT30;57637;49.272;8.590;2022-11-06T10:38:50;10.84;77.00
70246;SHT30;57637;49.272;8.590;2022-11-06T10:41:23;11.00;76.66
70246;SHT30;57637;49.272;8.590;2022-11-06T10:44:05;10.56;75.93
70246;SHT30;57637;49.272;8.590;2022-11-06T10:46:37;10.28;76.25
70246;SHT30;57637;49.272;8.590;2022-11-06T10:49:29;10.40;76.87
70246;SHT30;57637;49.272;8.590;2022-11-06T10:57:24;11.05;74.47
70246;SHT30;57637;49.272;8.590;2022-11-06T11:00:11;11.12;73.56
70246;SHT30;57637;49.272;8.590;2022-11-06T11:02:46;11.15;74.03
70246;SHT30;57637;49.272;8.590;2022-11-06T11:05:16;11.10;73.88
70246;SHT30;57637;49.272;8.590;2022-11-06T11:07:43;11.24;72.74
70246;SHT30;57637;49.272;8.590;2022-11-06T11:12:49;10.94;72.97
70246;SHT30;57637;49.272;8.590;2022-11-06T11:15:23;11.39;73.63
70246;SHT30;57637;49.272;8.590;2022-11-06T11:20:33;11.80;71.94
70246;SHT30;57637;49.272;8.590;2022-11-06T11:23:03;11.97;72.12
70246;SHT30;57637;49.272;8.590;2022-11-06T11:25:30;11.79;70.80
70246;SHT30;57637;49.272;8.590;2022-11-06T11:27:55;11.36;71.93
70246;SHT30;57637;49.272;8.590;2022-11-06T11:30:22;11.24;73.31
70246;SHT30;57637;49.272;8.590;2022-11-06T11:32:54;11.63;72.60
70246;SHT30;57637;49.272;8.590;2022-11-06T11:35:25;11.65;72.34
70246;SHT30;57637;49.272;8.590;2022-11-06T11:38:14;11.39;72.69
70246;SHT30;57637;49.272;8.590;2022-11-06T11:40:40;11.48;73.30
70246;SHT30;57637;49.272;8.590;2022-11-06T11:43:28;11.32;73.09
70246;SHT30;57637;49.272;8.590;2022-11-06T11:46:36;11.29;73.43
70246;SHT30;57637;49.272;8.590;2022-11-06T11:48:47;11.39;73.44
70246;SHT30;57637;49.272;8.590;2022-11-06T11:54:04;11.34;73.12
70246;SHT30;57637;49.272;8.590;2022-11-06T11:56:50;11.66;72.86
70246;SHT30;57637;49.272;8.590;2022-11-06T11:59:22;11.97;72.23
70246;SHT30;57637;49.272;8.590;2022-11-06T12:01:51;11.99;71.51
70246;SHT30;57637;49.272;8.590;2022-11-06T12:04:34;11.73;72.65
70246;SHT30;57637;49.272;8.590;2022-11-06T12:07:06;11.79;72.39
70246;SHT30;57637;49.272;8.590;2022-11-06T12:09:41;11.76;72.56
70246;SHT30;57637;49.272;8.590;2022-11-06T12:17:43;11.56;72.84
70246;SHT30;57637;49.272;8.590;2022-11-06T12:20:16;11.51;72.89
70246;SHT30;57637;49.272;8.590;2022-11-06T12:22:45;11.63;73.26
70246;SHT30;57637;49.272;8.590;2022-11-06T12:25:20;11.61;72.59
70246;SHT30;57637;49.272;8.590;2022-11-06T12:27:53;11.67;72.24
70246;SHT30;57637;49.272;8.590;2022-11-06T12:30:22;11.69;72.49
70246;SHT30;57637;49.272;8.590;2022-11-06T12:35:29;11.66;71.59
70246;SHT30;57637;49.272;8.590;2022-11-06T12:40:50;11.73;72.21
70246;SHT30;57637;49.272;8.590;2022-11-06T12:54:24;11.72;73.09
70246;SHT30;57637;49.272;8.590;2022-11-06T12:59:42;11.51;72.89
70246;SHT30;57637;49.272;8.590;2022-11-06T13:05:13;11.45;74.25
70246;SHT30;57637;49.272;8.590;2022-11-06T13:15:31;11.45;75.45
70246;SHT30;57637;49.272;8.590;2022-11-06T13:18:23;11.35;75.83
70246;SHT30;57637;49.272;8.590;2022-11-06T13:23:34;11.39;75.34
70246;SHT30;57637;49.272;8.590;2022-11-06T13:28:42;11.39;76.01
70246;SHT30;57637;49.272;8.590;2022-11-06T13:31:11;11.39;75.89
70246;SHT30;57637;49.272;8.590;2022-11-06T13:36:11;11.35;75.74
70246;SHT30;57637;49.272;8.590;2022-11-06T13:38:42;11.35;76.06
70246;SHT30;57637;49.272;8.590;2022-11-06T13:41:29;11.26;76.18
70246;SHT30;57637;49.272;8.590;2022-11-06T13:43:57;11.22;76.07
70246;SHT30;57637;49.272;8.590;2022-11-06T13:46:29;11.12;76.06
70246;SHT30;57637;49.272;8.590;2022-11-06T13:49:17;11.14;75.99
70246;SHT30;57637;49.272;8.590;2022-11-06T13:51:59;11.19;76.52
70246;SHT30;57637;49.272;8.590;2022-11-06T13:58:07;11.11;76.44
70246;SHT30;57637;49.272;8.590;2022-11-06T14:05:56;11.08;76.28
70246;SHT30;57637;49.272;8.590;2022-11-06T14:11:04;11.01;76.95
70246;SHT30;57637;49.272;8.590;2022-11-06T14:13:35;10.98;76.38
70246;SHT30;57637;49.272;8.590;2022-11-06T14:21:43;11.03;76.65
70246;SHT30;57637;49.272;8.590;2022-11-06T14:26:56;11.01;76.66
70246;SHT30;57637;49.272;8.590;2022-11-06T14:34:56;11.16;76.37
70246;SHT30;57637;49.272;8.590;2022-11-06T14:40:09;11.16;76.45
70246;SHT30;57637;49.272;8.590;2022-11-06T14:42:38;11.16;76.84
70246;SHT30;57637;49.272;8.590;2022-11-06T14:52:46;11.08;77.09
70246;SHT30;57637;49.272;8.590;2022-11-06T14:55:26;11.04;77.34
70246;SHT30;57637;49.272;8.590;2022-11-06T14:57:54;10.97;77.77
70246;SHT30;57637;49.272;8.590;2022-11-06T15:02:59;10.85;78.20
70246;SHT30;57637;49.272;8.590;2022-11-06T15:05:27;10.78;78.64
70246;SHT30;57637;49.272;8.590;2022-11-06T15:07:57;10.70;78.66
70246;SHT30;57637;49.272;8.590;2022-11-06T15:15:41;10.60;79.09
70246;SHT30;57637;49.272;8.590;2022-11-06T15:18:10;10.61;79.30
70246;SHT30;57637;49.272;8.590;2022-11-06T15:20:38;10.60;79.42
70246;SHT30;57637;49.272;8.590;2022-11-06T15:26:01;10.61;79.93
70246;SHT30;57637;49.272;8.590;2022-11-06T15:28:37;10.59;80.08
70246;SHT30;57637;49.272;8.590;2022-11-06T15:31:11;10.56;80.27
70246;SHT30;57637;49.272;8.590;2022-11-06T15:36:20;10.39;80.94
70246;SHT30;57637;49.272;8.590;2022-11-06T15:38:46;10.40;81.11
70246;SHT30;57637;49.272;8.590;2022-11-06T15:41:13;10.40;81.21
70246;SHT30;57637;49.272;8.590;2022-11-06T15:43:46;10.34;81.51
70246;SHT30;57637;49.272;8.590;2022-11-06T15:46:19;10.30;81.70
70246;SHT30;57637;49.272;8.590;2022-11-06T15:48:45;10.29;81.73
70246;SHT30;57637;49.272;8.590;2022-11-06T15:51:27;10.26;82.24
70246;SHT30;57637;49.272;8.590;2022-11-06T15:53:53;10.22;82.55
70246;SHT30;57637;49.272;8.590;2022-11-06T15:56:20;10.20;82.78
70246;SHT30;57637;49.272;8.590;2022-11-06T15:59:03;10.13;82.88
70246;SHT30;57637;49.272;8.590;2022-11-06T16:01:31;10.09;83.07
70246;SHT30;57637;49.272;8.590;2022-11-06T16:03:57;10.08;83.21
70246;SHT30;57637;49.272;8.590;2022-11-06T16:06:25;10.05;83.20
70246;SHT30;57637;49.272;8.590;2022-11-06T16:08:50;9.99;83.49
70246;SHT30;57637;49.272;8.590;2022-11-06T16:11:17;9.99;83.39
70246;SHT30;57637;49.272;8.590;2022-11-06T16:13:47;9.98;83.58
70246;SHT30;57637;49.272;8.590;2022-11-06T16:18:59;9.93;84.00
70246;SHT30;57637;49.272;8.590;2022-11-06T16:21:30;9.89;84.15
70246;SHT30;57637;49.272;8.590;2022-11-06T16:23:59;9.88;84.25
70246;SHT30;57637;49.272;8.590;2022-11-06T16:28:57;9.89;84.35
70246;SHT30;57637;49.272;8.590;2022-11-06T16:31:25;9.91;84.49
70246;SHT30;57637;49.272;8.590;2022-11-06T16:33:56;9.89;84.51
70246;SHT30;57637;49.272;8.590;2022-11-06T16:36:26;9.89;84.66
70246;SHT30;57637;49.272;8.590;2022-11-06T16:38:54;9.89;84.65
70246;SHT30;57637;49.272;8.590;2022-11-06T16:52:24;9.61;86.35
70246;SHT30;57637;49.272;8.590;2022-11-06T16:54:54;9.55;86.34
70246;SHT30;57637;49.272;8.590;2022-11-06T16:57:33;9.54;86.47
70246;SHT30;57637;49.272;8.590;2022-11-06T17:00:21;9.48;86.84
70246;SHT30;57637;49.272;8.590;2022-11-06T17:02:51;9.45;86.74
70246;SHT30;57637;49.272;8.590;2022-11-06T17:05:20;9.47;86.70
70246;SHT30;57637;49.272;8.590;2022-11-06T17:08:04;9.38;87.04
70246;SHT30;57637;49.272;8.590;2022-11-06T17:13:09;9.40;87.39
70246;SHT30;57637;49.272;8.590;2022-11-06T17:15:37;9.35;87.74
70246;SHT30;57637;49.272;8.590;2022-11-06T17:18:04;9.34;88.14
70246;SHT30;57637;49.272;8.590;2022-11-06T17:20:29;9.31;88.12
70246;SHT30;57637;49.272;8.590;2022-11-06T17:22:55;9.30;88.12
70246;SHT30;57637;49.272;8.590;2022-11-06T17:25:20;9.28;88.14
70246;SHT30;57637;49.272;8.590;2022-11-06T17:27:46;9.20;88.57
70246;SHT30;57637;49.272;8.590;2022-11-06T17:30:12;9.17;88.83
70246;SHT30;57637;49.272;8.590;2022-11-06T17:32:39;9.14;89.01
70246;SHT30;57637;49.272;8.590;2022-11-06T17:35:05;9.10;89.24
70246;SHT30;57637;49.272;8.590;2022-11-06T17:37:31;9.08;89.48
70246;SHT30;57637;49.272;8.590;2022-11-06T17:39:57;9.07;89.56
70246;SHT30;57637;49.272;8.590;2022-11-06T17:42:22;9.06;89.83
70246;SHT30;57637;49.272;8.590;2022-11-06T17:44:47;9.06;89.82
70246;SHT30;57637;49.272;8.590;2022-11-06T17:47:13;9.08;89.63
70246;SHT30;57637;49.272;8.590;2022-11-06T17:49:38;9.07;89.77
70246;SHT30;57637;49.272;8.590;2022-11-06T17:52:04;9.11;89.65
70246;SHT30;57637;49.272;8.590;2022-11-06T17:54:30;9.10;89.50
70246;SHT30;57637;49.272;8.590;2022-11-06T17:56:57;9.07;89.46
70246;SHT30;57637;49.272;8.590;2022-11-06T17:59:25;9.03;89.68
70246;SHT30;57637;49.272;8.590;2022-11-06T18:01:51;9.04;89.81
70246;SHT30;57637;49.272;8.590;2022-11-06T18:04:20;9.00;89.80
70246;SHT30;57637;49.272;8.590;2022-11-06T19:01:26;9.07;89.15
70246;SHT30;57637;49.272;8.590;2022-11-06T19:28:54;8.99;89.11
70246;SHT30;57637;49.272;8.590;2022-11-06T19:39:08;8.94;89.27
70246;SHT30;57637;49.272;8.590;2022-11-06T19:45:33;8.91;89.43
70246;SHT30;57637;49.272;8.590;2022-11-06T19:48:40;8.91;89.59
70246;SHT30;57637;49.272;8.590;2022-11-06T19:51:08;8.89;89.67
70246;SHT30;57637;49.272;8.590;2022-11-06T19:53:34;8.90;89.56
70246;SHT30;57637;49.272;8.590;2022-11-06T19:56:03;8.90;89.55
70246;SHT30;57637;49.272;8.590;2022-11-06T19:58:30;8.91;89.46
70246;SHT30;57637;49.272;8.590;2022-11-06T20:00:55;8.91;89.30
70246;SHT30;57637;49.272;8.590;2022-11-06T20:03:20;8.93;89.24
70246;SHT30;57637;49.272;8.590;2022-11-06T20:05:46;8.96;89.07
70246;SHT30;57637;49.272;8.590;2022-11-06T20:08:11;8.94;88.87
70246;SHT30;57637;49.272;8.590;2022-11-06T20:10:37;8.97;88.73
70246;SHT30;57637;49.272;8.590;2022-11-06T20:13:03;9.00;88.47